Atlantic Winter — CQDI — position and weather

sailwx.info

Track history (hours):
 
Tides and Currents Weather Stations Pressure Air Temp Water Temp Dewpoint Dewpoint Depression Visibility Wind Speed Wind Dir Waves Ship Positions

Atlantic Winter

Last reported at 2017-Sep-11 06:57 UTC. Time now 2017-Sep-26 01:54 UTC.
Position N 30°20' E 032°22'.
Warning: this ship's position is 14 days out of date.

Length 166 m; draft 8.4 m.

Type: Cargo ship. MMSI: 255805785.

Date/timePositionNaut miles runAvg speedWind from/ knotsBaromVisibWave heightAir tempDewpointWater temp
2017-Sep-11 06:57N 30°20' E 032°22'0 0.1
2017-Sep-11 06:30N 30°20' E 032°22'39 6.8
2017-Sep-11 00:48N 30°59' E 032°19'6 8.1
2017-Sep-11 00:00N 31°05' E 032°18'12 7.8
2017-Sep-10 22:28N 31°17' E 032°22'6 6.9
2017-Sep-10 21:39N 31°22' E 032°23'1 4.7
2017-Sep-10 21:29N 31°23' E 032°22'2 3.1
2017-Sep-10 21:00N 31°22' E 032°21'3 1.2
2017-Sep-10 18:13N 31°25' E 032°19'2 7.2
2017-Sep-10 17:58N 31°26' E 032°18'510.7
2017-Sep-10 17:29N 31°30' E 032°14'510.7
2017-Sep-10 17:00N 31°34' E 032°10'510.7
2017-Sep-10 16:30N 31°38' E 032°05'510.7
2017-Sep-10 16:00N 31°42' E 032°01'4010.6
2017-Sep-10 12:13N 31°59' E 031°18'210.5
2017-Sep-10 12:00N 31°60' E 031°16'510.5
2017-Sep-10 11:30N 32°02' E 031°11'1011.3
2017-Sep-10 10:39N 32°06' E 031°00'616.7
2017-Sep-10 10:17N 32°09' E 030°53'517.0
2017-Sep-10 10:00N 32°11' E 030°48'40116.6
2017-Sep-09 09:50N 34°59' E 023°31'517.0
2017-Sep-09 09:30N 35°03' E 023°26'72716.5
2017-Sep-07 13:19N 44°15' E 013°11'516.3
2017-Sep-07 12:59N 44°20' E 013°09'816.3
2017-Sep-07 12:30N 44°27' E 013°06'816.7
2017-Sep-07 12:00N 44°35' E 013°02'816.8
2017-Sep-07 11:30N 44°43' E 012°58'816.7
2017-Sep-07 11:00N 44°51' E 012°53'816.8
2017-Sep-07 10:30N 44°58' E 012°48'816.4
2017-Sep-07 10:00N 45°06' E 012°43'815.7
2017-Sep-07 09:30N 45°10' E 012°35'714.9
2017-Sep-07 09:00N 45°16' E 012°28'713.8
2017-Sep-07 08:30N 45°20' E 012°20'4 7.9
2017-Sep-07 08:00N 45°23' E 012°15'4 7.5
2017-Sep-07 07:30N 45°26' E 012°16'2 2.6
2017-Sep-07 06:55N 45°28' E 012°14'0 0.0
2017-Sep-07 06:27N 45°28' E 012°14'0 0.0
2017-Sep-07 05:49N 45°28' E 012°14'0 0.0
2017-Sep-07 05:28N 45°28' E 012°14'0 0.0
2017-Sep-07 04:58N 45°28' E 012°14'0 0.0
2017-Sep-07 04:25N 45°28' E 012°14'0 0.0
2017-Sep-07 03:58N 45°28' E 012°14'0 0.0
2017-Sep-07 03:19N 45°28' E 012°14'0 0.0
2017-Sep-07 02:54N 45°28' E 012°14'0 0.0
2017-Sep-07 02:28N 45°28' E 012°14'0 0.0
2017-Sep-07 01:46N 45°28' E 012°14'0 0.0
2017-Sep-07 01:27N 45°28' E 012°14'0 0.0
2017-Sep-07 00:58N 45°28' E 012°14'0 0.0
2017-Sep-07 00:31N 45°28' E 012°14'0 0.0
2017-Sep-06 23:58N 45°28' E 012°14'0 0.0
2017-Sep-06 23:28N 45°28' E 012°14'0 0.0
2017-Sep-06 23:01N 45°28' E 012°14'0 0.0
2017-Sep-06 22:31N 45°28' E 012°14'0 0.0
2017-Sep-06 21:55N 45°28' E 012°14'0 0.0
2017-Sep-06 21:28N 45°28' E 012°14'0 0.0
2017-Sep-06 21:01N 45°28' E 012°14'0 0.0
2017-Sep-06 20:27N 45°28' E 012°14'0 0.0
2017-Sep-06 19:58N 45°28' E 012°14'0 0.0
2017-Sep-06 19:30N 45°28' E 012°14'0 0.0
2017-Sep-06 19:00N 45°28' E 012°14'0 0.0
2017-Sep-06 18:27N 45°28' E 012°14'0 0.0
2017-Sep-06 18:00N 45°28' E 012°14'0 0.0
2017-Sep-06 17:24N 45°28' E 012°14'0 0.0
2017-Sep-06 17:01N 45°28' E 012°14'0 0.0
2017-Sep-06 16:13N 45°28' E 012°14'0 0.0
2017-Sep-06 15:57N 45°28' E 012°14'0 0.0
2017-Sep-06 15:30N 45°28' E 012°14'0 0.0
2017-Sep-06 15:00N 45°28' E 012°14'0 0.0
2017-Sep-06 14:16N 45°28' E 012°14'0 0.0
2017-Sep-06 13:33N 45°28' E 012°14'0 0.0
2017-Sep-06 13:31N 45°28' E 012°14'0 0.0
2017-Sep-06 13:00N 45°28' E 012°14'0 0.0
2017-Sep-06 12:31N 45°28' E 012°14'0 0.0
2017-Sep-06 12:00N 45°28' E 012°14'0 0.0
2017-Sep-06 11:31N 45°28' E 012°14'0 0.0
2017-Sep-06 11:00N 45°28' E 012°14'0 0.0
2017-Sep-06 10:30N 45°28' E 012°14'1 1.9
2017-Sep-06 10:00N 45°27' E 012°15'2 4.2
2017-Sep-06 09:30N 45°25' E 012°16'4 8.6
2017-Sep-06 09:01N 45°21' E 012°16'5 9.7
2017-Sep-06 08:30N 45°19' E 012°23'5 9.5
2017-Sep-06 08:00N 45°21' E 012°29'0 0.5
2017-Sep-06 07:28N 45°22' E 012°29'0 0.0
2017-Sep-06 06:58N 45°22' E 012°29'0 0.0
2017-Sep-06 06:28N 45°22' E 012°29'0 0.0
2017-Sep-06 05:58N 45°22' E 012°29'0 0.0
2017-Sep-06 05:28N 45°22' E 012°29'0 0.0
2017-Sep-06 04:58N 45°22' E 012°29'0 0.0
2017-Sep-06 04:28N 45°22' E 012°29'0 0.0
2017-Sep-06 03:58N 45°22' E 012°29'0 0.0
2017-Sep-06 03:28N 45°22' E 012°29'0 0.0
2017-Sep-06 02:58N 45°22' E 012°29'0 0.0
2017-Sep-06 02:28N 45°22' E 012°29'0 0.0
2017-Sep-06 01:58N 45°22' E 012°29'0 0.0
2017-Sep-06 01:28N 45°22' E 012°29'0 0.0
2017-Sep-06 00:58N 45°22' E 012°29'0 0.0
2017-Sep-06 00:22N 45°22' E 012°29'0 0.0
2017-Sep-05 23:58N 45°22' E 012°29'0 0.1
2017-Sep-05 23:28N 45°22' E 012°29'0 0.0
2017-Sep-05 22:58N 45°22' E 012°29'0 0.0
2017-Sep-05 22:28N 45°22' E 012°29'0 0.0
2017-Sep-05 21:58N 45°22' E 012°29'0 0.0
2017-Sep-05 21:25N 45°22' E 012°29'0 0.1
2017-Sep-05 20:58N 45°22' E 012°29'0 0.1
2017-Sep-05 20:28N 45°22' E 012°29'0 0.0
2017-Sep-05 19:58N 45°22' E 012°29'0 0.0
2017-Sep-05 19:25N 45°22' E 012°29'0 0.0
2017-Sep-05 18:58N 45°22' E 012°29'0 0.0
2017-Sep-05 18:28N 45°22' E 012°29'0 0.0
2017-Sep-05 17:58N 45°22' E 012°29'0 0.0
2017-Sep-05 17:28N 45°22' E 012°29'0 0.0
2017-Sep-05 16:58N 45°22' E 012°29'0 0.0
2017-Sep-05 16:28N 45°22' E 012°29'0 0.1
2017-Sep-05 15:58N 45°22' E 012°29'0 0.0
2017-Sep-05 15:28N 45°22' E 012°29'0 0.0
2017-Sep-05 14:58N 45°22' E 012°29'0 0.0
2017-Sep-05 14:28N 45°22' E 012°29'0 0.0
2017-Sep-05 13:58N 45°22' E 012°29'0 0.0
2017-Sep-05 13:28N 45°22' E 012°29'0 0.0
2017-Sep-05 12:58N 45°22' E 012°29'0 0.1
2017-Sep-05 12:28N 45°22' E 012°29'0 0.1
2017-Sep-05 11:58N 45°22' E 012°29'0 0.0
2017-Sep-05 11:28N 45°22' E 012°29'0 0.0
2017-Sep-05 10:58N 45°22' E 012°29'0 0.0
2017-Sep-05 10:28N 45°22' E 012°29'0 0.0
2017-Sep-05 09:58N 45°22' E 012°29'0 0.0
2017-Sep-05 09:28N 45°22' E 012°29'0 0.0
2017-Sep-05 08:58N 45°22' E 012°29'0 0.0
2017-Sep-05 08:22N 45°22' E 012°29'0 0.0
2017-Sep-05 07:55N 45°22' E 012°29'0 0.0
2017-Sep-05 07:28N 45°22' E 012°29'0 0.0
2017-Sep-05 06:55N 45°22' E 012°29'0 0.0
2017-Sep-05 06:28N 45°22' E 012°29'0 0.0
2017-Sep-05 05:58N 45°22' E 012°29'0 0.0
2017-Sep-05 05:28N 45°22' E 012°29'0 0.0
2017-Sep-05 04:55N 45°22' E 012°29'0 0.0
2017-Sep-05 04:28N 45°22' E 012°29'0 0.0
2017-Sep-05 03:58N 45°22' E 012°29'0 0.0
2017-Sep-05 03:28N 45°22' E 012°29'0 0.0
2017-Sep-05 02:58N 45°22' E 012°29'0 0.1
2017-Sep-05 02:28N 45°22' E 012°29'0 0.0
2017-Sep-05 01:58N 45°22' E 012°29'0 0.1
2017-Sep-05 01:25N 45°22' E 012°29'0 0.1
2017-Sep-05 00:58N 45°22' E 012°29'0 0.1
2017-Sep-05 00:22N 45°22' E 012°29'0 0.3
2017-Sep-04 23:58N 45°22' E 012°29'0 0.2
2017-Sep-04 23:28N 45°22' E 012°29'0 0.1
2017-Sep-04 22:58N 45°22' E 012°29'0 0.1
2017-Sep-04 22:28N 45°22' E 012°29'0 0.0
2017-Sep-04 21:58N 45°22' E 012°29'0 0.0
2017-Sep-04 21:28N 45°22' E 012°29'0 0.1
2017-Sep-04 20:58N 45°22' E 012°29'0 0.0
2017-Sep-04 20:28N 45°22' E 012°29'0 0.0
2017-Sep-04 19:58N 45°22' E 012°29'0 0.0
2017-Sep-04 19:28N 45°22' E 012°29'0 0.0
2017-Sep-04 18:58N 45°22' E 012°29'0 0.0
2017-Sep-04 18:27N 45°22' E 012°29'0 0.0
2017-Sep-04 17:58N 45°22' E 012°29'0 0.0
2017-Sep-04 17:28N 45°22' E 012°29'0 0.0
2017-Sep-04 16:58N 45°22' E 012°29'0 0.0
2017-Sep-04 16:28N 45°22' E 012°29'0 0.0
2017-Sep-04 16:01N 45°22' E 012°29'0 0.0
2017-Sep-04 15:28N 45°22' E 012°29'0 0.0
2017-Sep-04 14:58N 45°22' E 012°29'0 0.0
2017-Sep-04 14:28N 45°22' E 012°29'0 0.0
2017-Sep-04 13:58N 45°22' E 012°29'0 0.0
2017-Sep-04 13:28N 45°22' E 012°29'0 0.0
2017-Sep-04 12:58N 45°22' E 012°29'0 0.1
2017-Sep-04 12:28N 45°22' E 012°29'0 0.1
2017-Sep-04 11:58N 45°22' E 012°29'0 0.0
2017-Sep-04 11:28N 45°22' E 012°29'0 0.0
2017-Sep-04 10:57N 45°22' E 012°29'0 0.0
2017-Sep-04 10:31N 45°22' E 012°29'0 0.0
2017-Sep-04 09:58N 45°22' E 012°29'0 0.0
2017-Sep-04 09:28N 45°22' E 012°29'0 0.0
2017-Sep-04 08:52N 45°22' E 012°29'0 0.0
2017-Sep-04 08:22N 45°22' E 012°29'0 0.1
2017-Sep-04 08:01N 45°22' E 012°29'0 0.0
2017-Sep-04 07:28N 45°22' E 012°29'0 0.0
2017-Sep-04 07:00N 45°22' E 012°29'0 0.0
2017-Sep-04 06:25N 45°22' E 012°29'0 0.0
2017-Sep-04 06:00N 45°22' E 012°29'0 0.0
2017-Sep-04 05:25N 45°22' E 012°29'0 0.0
2017-Sep-04 04:57N 45°22' E 012°29'0 0.0
2017-Sep-04 04:24N 45°22' E 012°29'0 0.0
2017-Sep-04 04:01N 45°22' E 012°29'0 0.0
2017-Sep-04 03:28N 45°22' E 012°29'0 0.0
2017-Sep-04 03:01N 45°22' E 012°29'0 0.1
2017-Sep-04 02:25N 45°22' E 012°29'0 0.0
2017-Sep-04 02:00N 45°22' E 012°29'0 0.1
2017-Sep-04 01:27N 45°22' E 012°29'0 0.1
2017-Sep-04 01:00N 45°22' E 012°29'0 0.0
2017-Sep-04 00:30N 45°22' E 012°29'0 0.1
2017-Sep-04 00:00N 45°22' E 012°29'0 0.2
2017-Sep-03 23:31N 45°22' E 012°29'0 0.1
2017-Sep-03 23:00N 45°22' E 012°29'1 2.6
2017-Sep-03 22:30N 45°20' E 012°29'4 7.1
2017-Sep-03 22:00N 45°17' E 012°31'713.8
2017-Sep-03 21:30N 45°13' E 012°38'816.5
2017-Sep-03 21:01N 45°08' E 012°48'816.0
2017-Sep-03 20:30N 45°01' E 012°53'815.9
2017-Sep-03 20:00N 44°56' E 013°02'816.2
2017-Sep-03 19:31N 44°55' E 013°13'815.4
2017-Sep-03 19:01N 44°53' E 013°24'816.8
2017-Sep-03 18:31N 44°47' E 013°31'1216.2
2017-Sep-03 17:47N 44°41' E 013°46'616.9
2017-Sep-03 17:25N 44°41' E 013°55'615.3
2017-Sep-03 17:01N 44°44' E 014°02'916.8
2017-Sep-03 16:30N 44°52' E 014°08'817.1
2017-Sep-03 16:01N 44°59' E 014°13'917.1
2017-Sep-03 15:31N 45°08' E 014°14'916.9
2017-Sep-03 15:00N 45°15' E 014°20'4 0.3
2017-Sep-02 23:46N 45°18' E 014°24'1610.9
2017-Sep-02 22:16N 45°03' E 014°15'716.3
2017-Sep-02 21:49N 44°56' E 014°12'716.0
2017-Sep-02 21:23N 44°50' E 014°09'616.0
2017-Sep-02 21:01N 44°44' E 014°06'816.1
2017-Sep-02 20:30N 44°36' E 014°03'815.5
2017-Sep-02 20:01N 44°28' E 014°02'816.0
2017-Sep-02 19:31N 44°21' E 014°04'815.9
2017-Sep-02 19:00N 44°13' E 014°05'816.2
2017-Sep-02 18:30N 44°05' E 014°10'25617.0
2017-Sep-02 03:28N 40°56' E 018°03'816.8
2017-Sep-02 03:01N 40°51' E 018°11'816.8
2017-Sep-02 02:30N 40°46' E 018°20'816.9
2017-Sep-02 02:01N 40°39' E 018°27'917.1
2017-Sep-02 01:30N 40°33' E 018°34'817.0
2017-Sep-02 01:01N 40°26' E 018°41'816.8
2017-Sep-02 00:31N 40°18' E 018°44'916.8
2017-Sep-01 23:58N 40°09' E 018°44'816.9
2017-Sep-01 23:30N 40°01' E 018°42'816.8
2017-Sep-01 23:00N 39°53' E 018°39'916.7
2017-Sep-01 22:29N 39°45' E 018°36'1217.0
2017-Sep-01 21:46N 39°35' E 018°27'517.4
2017-Sep-01 21:31N 39°31' E 018°23'1117.1
2017-Sep-01 20:51N 39°23' E 018°13'717.2
2017-Sep-01 20:26N 39°17' E 018°07'817.4
2017-Sep-01 19:58N 39°11' E 018°00'817.5
2017-Sep-01 19:30N 39°05' E 017°53'917.3
2017-Sep-01 19:01N 38°59' E 017°46'917.1
2017-Sep-01 18:30N 38°52' E 017°39'917.1
2017-Sep-01 18:01N 38°46' E 017°32'917.0
2017-Sep-01 17:31N 38°39' E 017°25'1117.3
2017-Sep-01 16:53N 38°31' E 017°16'717.1
2017-Sep-01 16:29N 38°26' E 017°10'10017.7
2017-Sep-01 10:48N 37°09' E 015°48'2117.7
2017-Sep-01 09:36N 36°52' E 015°31'217.6
2017-Sep-01 09:29N 36°51' E 015°30'817.2
2017-Sep-01 09:00N 36°44' E 015°23'916.9
2017-Sep-01 08:30N 36°38' E 015°16'816.1
2017-Sep-01 08:00N 36°34' E 015°08'917.0
2017-Sep-01 07:30N 36°35' E 014°57'817.2
2017-Sep-01 07:01N 36°36' E 014°47'  
Track history (hours):
 
Tides and Currents Weather Stations Pressure Air Temp Water Temp Dewpoint Dewpoint Depression Visibility Wind Speed Wind Dir Waves Ship Positions

Atlantic Winter

Last reported at 2017-Sep-11 06:57 UTC. Time now 2017-Sep-26 01:54 UTC.
Position N 30°20' E 032°22'.
Warning: this ship's position is 14 days out of date.

Length 166 m; draft 8.4 m.

Type: Cargo ship. MMSI: 255805785.

Date/timePositionNaut miles runAvg speedWind from/ knotsBaromVisibWave heightAir tempDewpointWater temp
2017-Sep-11 06:57N 30°20' E 032°22'0 0.1
2017-Sep-11 06:30N 30°20' E 032°22'39 6.8
2017-Sep-11 00:48N 30°59' E 032°19'6 8.1
2017-Sep-11 00:00N 31°05' E 032°18'12 7.8
2017-Sep-10 22:28N 31°17' E 032°22'6 6.9
2017-Sep-10 21:39N 31°22' E 032°23'1 4.7
2017-Sep-10 21:29N 31°23' E 032°22'2 3.1
2017-Sep-10 21:00N 31°22' E 032°21'3 1.2
2017-Sep-10 18:13N 31°25' E 032°19'2 7.2
2017-Sep-10 17:58N 31°26' E 032°18'510.7
2017-Sep-10 17:29N 31°30' E 032°14'510.7
2017-Sep-10 17:00N 31°34' E 032°10'510.7
2017-Sep-10 16:30N 31°38' E 032°05'510.7
2017-Sep-10 16:00N 31°42' E 032°01'4010.6
2017-Sep-10 12:13N 31°59' E 031°18'210.5
2017-Sep-10 12:00N 31°60' E 031°16'510.5
2017-Sep-10 11:30N 32°02' E 031°11'1011.3
2017-Sep-10 10:39N 32°06' E 031°00'616.7
2017-Sep-10 10:17N 32°09' E 030°53'517.0
2017-Sep-10 10:00N 32°11' E 030°48'40116.6
2017-Sep-09 09:50N 34°59' E 023°31'517.0
2017-Sep-09 09:30N 35°03' E 023°26'72716.5
2017-Sep-07 13:19N 44°15' E 013°11'516.3
2017-Sep-07 12:59N 44°20' E 013°09'816.3
2017-Sep-07 12:30N 44°27' E 013°06'816.7
2017-Sep-07 12:00N 44°35' E 013°02'816.8
2017-Sep-07 11:30N 44°43' E 012°58'816.7
2017-Sep-07 11:00N 44°51' E 012°53'816.8
2017-Sep-07 10:30N 44°58' E 012°48'816.4
2017-Sep-07 10:00N 45°06' E 012°43'815.7
2017-Sep-07 09:30N 45°10' E 012°35'714.9
2017-Sep-07 09:00N 45°16' E 012°28'713.8
2017-Sep-07 08:30N 45°20' E 012°20'4 7.9
2017-Sep-07 08:00N 45°23' E 012°15'4 7.5
2017-Sep-07 07:30N 45°26' E 012°16'2 2.6
2017-Sep-07 06:55N 45°28' E 012°14'0 0.0
2017-Sep-07 06:27N 45°28' E 012°14'0 0.0
2017-Sep-07 05:49N 45°28' E 012°14'0 0.0
2017-Sep-07 05:28N 45°28' E 012°14'0 0.0
2017-Sep-07 04:58N 45°28' E 012°14'0 0.0
2017-Sep-07 04:25N 45°28' E 012°14'0 0.0
2017-Sep-07 03:58N 45°28' E 012°14'0 0.0
2017-Sep-07 03:19N 45°28' E 012°14'0 0.0
2017-Sep-07 02:54N 45°28' E 012°14'0 0.0
2017-Sep-07 02:28N 45°28' E 012°14'0 0.0
2017-Sep-07 01:46N 45°28' E 012°14'0 0.0
2017-Sep-07 01:27N 45°28' E 012°14'0 0.0
2017-Sep-07 00:58N 45°28' E 012°14'0 0.0
2017-Sep-07 00:31N 45°28' E 012°14'0 0.0
2017-Sep-06 23:58N 45°28' E 012°14'0 0.0
2017-Sep-06 23:28N 45°28' E 012°14'0 0.0
2017-Sep-06 23:01N 45°28' E 012°14'0 0.0
2017-Sep-06 22:31N 45°28' E 012°14'0 0.0
2017-Sep-06 21:55N 45°28' E 012°14'0 0.0
2017-Sep-06 21:28N 45°28' E 012°14'0 0.0
2017-Sep-06 21:01N 45°28' E 012°14'0 0.0
2017-Sep-06 20:27N 45°28' E 012°14'0 0.0
2017-Sep-06 19:58N 45°28' E 012°14'0 0.0
2017-Sep-06 19:30N 45°28' E 012°14'0 0.0
2017-Sep-06 19:00N 45°28' E 012°14'0 0.0
2017-Sep-06 18:27N 45°28' E 012°14'0 0.0
2017-Sep-06 18:00N 45°28' E 012°14'0 0.0
2017-Sep-06 17:24N 45°28' E 012°14'0 0.0
2017-Sep-06 17:01N 45°28' E 012°14'0 0.0
2017-Sep-06 16:13N 45°28' E 012°14'0 0.0
2017-Sep-06 15:57N 45°28' E 012°14'0 0.0
2017-Sep-06 15:30N 45°28' E 012°14'0 0.0
2017-Sep-06 15:00N 45°28' E 012°14'0 0.0
2017-Sep-06 14:16N 45°28' E 012°14'0 0.0
2017-Sep-06 13:33N 45°28' E 012°14'0 0.0
2017-Sep-06 13:31N 45°28' E 012°14'0 0.0
2017-Sep-06 13:00N 45°28' E 012°14'0 0.0
2017-Sep-06 12:31N 45°28' E 012°14'0 0.0
2017-Sep-06 12:00N 45°28' E 012°14'0 0.0
2017-Sep-06 11:31N 45°28' E 012°14'0 0.0
2017-Sep-06 11:00N 45°28' E 012°14'0 0.0
2017-Sep-06 10:30N 45°28' E 012°14'1 1.9
2017-Sep-06 10:00N 45°27' E 012°15'2 4.2
2017-Sep-06 09:30N 45°25' E 012°16'4 8.6
2017-Sep-06 09:01N 45°21' E 012°16'5 9.7
2017-Sep-06 08:30N 45°19' E 012°23'5 9.5
2017-Sep-06 08:00N 45°21' E 012°29'0 0.5
2017-Sep-06 07:28N 45°22' E 012°29'0 0.0
2017-Sep-06 06:58N 45°22' E 012°29'0 0.0
2017-Sep-06 06:28N 45°22' E 012°29'0 0.0
2017-Sep-06 05:58N 45°22' E 012°29'0 0.0
2017-Sep-06 05:28N 45°22' E 012°29'0 0.0
2017-Sep-06 04:58N 45°22' E 012°29'0 0.0
2017-Sep-06 04:28N 45°22' E 012°29'0 0.0
2017-Sep-06 03:58N 45°22' E 012°29'0 0.0
2017-Sep-06 03:28N 45°22' E 012°29'0 0.0
2017-Sep-06 02:58N 45°22' E 012°29'0 0.0
2017-Sep-06 02:28N 45°22' E 012°29'0 0.0
2017-Sep-06 01:58N 45°22' E 012°29'0 0.0
2017-Sep-06 01:28N 45°22' E 012°29'0 0.0
2017-Sep-06 00:58N 45°22' E 012°29'0 0.0
2017-Sep-06 00:22N 45°22' E 012°29'0 0.0
2017-Sep-05 23:58N 45°22' E 012°29'0 0.1
2017-Sep-05 23:28N 45°22' E 012°29'0 0.0
2017-Sep-05 22:58N 45°22' E 012°29'0 0.0
2017-Sep-05 22:28N 45°22' E 012°29'0 0.0
2017-Sep-05 21:58N 45°22' E 012°29'0 0.0
2017-Sep-05 21:25N 45°22' E 012°29'0 0.1
2017-Sep-05 20:58N 45°22' E 012°29'0 0.1
2017-Sep-05 20:28N 45°22' E 012°29'0 0.0
2017-Sep-05 19:58N 45°22' E 012°29'0 0.0
2017-Sep-05 19:25N 45°22' E 012°29'0 0.0
2017-Sep-05 18:58N 45°22' E 012°29'0 0.0
2017-Sep-05 18:28N 45°22' E 012°29'0 0.0
2017-Sep-05 17:58N 45°22' E 012°29'0 0.0
2017-Sep-05 17:28N 45°22' E 012°29'0 0.0
2017-Sep-05 16:58N 45°22' E 012°29'0 0.0
2017-Sep-05 16:28N 45°22' E 012°29'0 0.1
2017-Sep-05 15:58N 45°22' E 012°29'0 0.0
2017-Sep-05 15:28N 45°22' E 012°29'0 0.0
2017-Sep-05 14:58N 45°22' E 012°29'0 0.0
2017-Sep-05 14:28N 45°22' E 012°29'0 0.0
2017-Sep-05 13:58N 45°22' E 012°29'0 0.0
2017-Sep-05 13:28N 45°22' E 012°29'0 0.0
2017-Sep-05 12:58N 45°22' E 012°29'0 0.1
2017-Sep-05 12:28N 45°22' E 012°29'0 0.1
2017-Sep-05 11:58N 45°22' E 012°29'0 0.0
2017-Sep-05 11:28N 45°22' E 012°29'0 0.0
2017-Sep-05 10:58N 45°22' E 012°29'0 0.0
2017-Sep-05 10:28N 45°22' E 012°29'0 0.0
2017-Sep-05 09:58N 45°22' E 012°29'0 0.0
2017-Sep-05 09:28N 45°22' E 012°29'0 0.0
2017-Sep-05 08:58N 45°22' E 012°29'0 0.0
2017-Sep-05 08:22N 45°22' E 012°29'0 0.0
2017-Sep-05 07:55N 45°22' E 012°29'0 0.0
2017-Sep-05 07:28N 45°22' E 012°29'0 0.0
2017-Sep-05 06:55N 45°22' E 012°29'0 0.0
2017-Sep-05 06:28N 45°22' E 012°29'0 0.0
2017-Sep-05 05:58N 45°22' E 012°29'0 0.0
2017-Sep-05 05:28N 45°22' E 012°29'0 0.0
2017-Sep-05 04:55N 45°22' E 012°29'0 0.0
2017-Sep-05 04:28N 45°22' E 012°29'0 0.0
2017-Sep-05 03:58N 45°22' E 012°29'0 0.0
2017-Sep-05 03:28N 45°22' E 012°29'0 0.0
2017-Sep-05 02:58N 45°22' E 012°29'0 0.1
2017-Sep-05 02:28N 45°22' E 012°29'0 0.0
2017-Sep-05 01:58N 45°22' E 012°29'0 0.1
2017-Sep-05 01:25N 45°22' E 012°29'0 0.1
2017-Sep-05 00:58N 45°22' E 012°29'0 0.1
2017-Sep-05 00:22N 45°22' E 012°29'0 0.3
2017-Sep-04 23:58N 45°22' E 012°29'0 0.2
2017-Sep-04 23:28N 45°22' E 012°29'0 0.1
2017-Sep-04 22:58N 45°22' E 012°29'0 0.1
2017-Sep-04 22:28N 45°22' E 012°29'0 0.0
2017-Sep-04 21:58N 45°22' E 012°29'0 0.0
2017-Sep-04 21:28N 45°22' E 012°29'0 0.1
2017-Sep-04 20:58N 45°22' E 012°29'0 0.0
2017-Sep-04 20:28N 45°22' E 012°29'0 0.0
2017-Sep-04 19:58N 45°22' E 012°29'0 0.0
2017-Sep-04 19:28N 45°22' E 012°29'0 0.0
2017-Sep-04 18:58N 45°22' E 012°29'0 0.0
2017-Sep-04 18:27N 45°22' E 012°29'0 0.0
2017-Sep-04 17:58N 45°22' E 012°29'0 0.0
2017-Sep-04 17:28N 45°22' E 012°29'0 0.0
2017-Sep-04 16:58N 45°22' E 012°29'0 0.0
2017-Sep-04 16:28N 45°22' E 012°29'0 0.0
2017-Sep-04 16:01N 45°22' E 012°29'0 0.0
2017-Sep-04 15:28N 45°22' E 012°29'0 0.0
2017-Sep-04 14:58N 45°22' E 012°29'0 0.0
2017-Sep-04 14:28N 45°22' E 012°29'0 0.0
2017-Sep-04 13:58N 45°22' E 012°29'0 0.0
2017-Sep-04 13:28N 45°22' E 012°29'0 0.0
2017-Sep-04 12:58N 45°22' E 012°29'0 0.1
2017-Sep-04 12:28N 45°22' E 012°29'0 0.1
2017-Sep-04 11:58N 45°22' E 012°29'0 0.0
2017-Sep-04 11:28N 45°22' E 012°29'0 0.0
2017-Sep-04 10:57N 45°22' E 012°29'0 0.0
2017-Sep-04 10:31N 45°22' E 012°29'0 0.0
2017-Sep-04 09:58N 45°22' E 012°29'0 0.0
2017-Sep-04 09:28N 45°22' E 012°29'0 0.0
2017-Sep-04 08:52N 45°22' E 012°29'0 0.0
2017-Sep-04 08:22N 45°22' E 012°29'0 0.1
2017-Sep-04 08:01N 45°22' E 012°29'0 0.0
2017-Sep-04 07:28N 45°22' E 012°29'0 0.0
2017-Sep-04 07:00N 45°22' E 012°29'0 0.0
2017-Sep-04 06:25N 45°22' E 012°29'0 0.0
2017-Sep-04 06:00N 45°22' E 012°29'0 0.0
2017-Sep-04 05:25N 45°22' E 012°29'0 0.0
2017-Sep-04 04:57N 45°22' E 012°29'0 0.0
2017-Sep-04 04:24N 45°22' E 012°29'0 0.0
2017-Sep-04 04:01N 45°22' E 012°29'0 0.0
2017-Sep-04 03:28N 45°22' E 012°29'0 0.0
2017-Sep-04 03:01N 45°22' E 012°29'0 0.1
2017-Sep-04 02:25N 45°22' E 012°29'0 0.0
2017-Sep-04 02:00N 45°22' E 012°29'0 0.1
2017-Sep-04 01:27N 45°22' E 012°29'0 0.1
2017-Sep-04 01:00N 45°22' E 012°29'0 0.0
2017-Sep-04 00:30N 45°22' E 012°29'0 0.1
2017-Sep-04 00:00N 45°22' E 012°29'0 0.2
2017-Sep-03 23:31N 45°22' E 012°29'0 0.1
2017-Sep-03 23:00N 45°22' E 012°29'1 2.6
2017-Sep-03 22:30N 45°20' E 012°29'4 7.1
2017-Sep-03 22:00N 45°17' E 012°31'713.8
2017-Sep-03 21:30N 45°13' E 012°38'816.5
2017-Sep-03 21:01N 45°08' E 012°48'816.0
2017-Sep-03 20:30N 45°01' E 012°53'815.9
2017-Sep-03 20:00N 44°56' E 013°02'816.2
2017-Sep-03 19:31N 44°55' E 013°13'815.4
2017-Sep-03 19:01N 44°53' E 013°24'816.8
2017-Sep-03 18:31N 44°47' E 013°31'1216.2
2017-Sep-03 17:47N 44°41' E 013°46'616.9
2017-Sep-03 17:25N 44°41' E 013°55'615.3
2017-Sep-03 17:01N 44°44' E 014°02'916.8
2017-Sep-03 16:30N 44°52' E 014°08'817.1
2017-Sep-03 16:01N 44°59' E 014°13'917.1
2017-Sep-03 15:31N 45°08' E 014°14'916.9
2017-Sep-03 15:00N 45°15' E 014°20'4 0.3
2017-Sep-02 23:46N 45°18' E 014°24'1610.9
2017-Sep-02 22:16N 45°03' E 014°15'716.3
2017-Sep-02 21:49N 44°56' E 014°12'716.0
2017-Sep-02 21:23N 44°50' E 014°09'616.0
2017-Sep-02 21:01N 44°44' E 014°06'816.1
2017-Sep-02 20:30N 44°36' E 014°03'815.5
2017-Sep-02 20:01N 44°28' E 014°02'816.0
2017-Sep-02 19:31N 44°21' E 014°04'815.9
2017-Sep-02 19:00N 44°13' E 014°05'816.2
2017-Sep-02 18:30N 44°05' E 014°10'25617.0
2017-Sep-02 03:28N 40°56' E 018°03'816.8
2017-Sep-02 03:01N 40°51' E 018°11'816.8
2017-Sep-02 02:30N 40°46' E 018°20'816.9
2017-Sep-02 02:01N 40°39' E 018°27'917.1
2017-Sep-02 01:30N 40°33' E 018°34'817.0
2017-Sep-02 01:01N 40°26' E 018°41'816.8
2017-Sep-02 00:31N 40°18' E 018°44'916.8
2017-Sep-01 23:58N 40°09' E 018°44'816.9
2017-Sep-01 23:30N 40°01' E 018°42'816.8
2017-Sep-01 23:00N 39°53' E 018°39'916.7
2017-Sep-01 22:29N 39°45' E 018°36'1217.0
2017-Sep-01 21:46N 39°35' E 018°27'517.4
2017-Sep-01 21:31N 39°31' E 018°23'1117.1
2017-Sep-01 20:51N 39°23' E 018°13'717.2
2017-Sep-01 20:26N 39°17' E 018°07'817.4
2017-Sep-01 19:58N 39°11' E 018°00'817.5
2017-Sep-01 19:30N 39°05' E 017°53'917.3
2017-Sep-01 19:01N 38°59' E 017°46'917.1
2017-Sep-01 18:30N 38°52' E 017°39'917.1
2017-Sep-01 18:01N 38°46' E 017°32'917.0
2017-Sep-01 17:31N 38°39' E 017°25'1117.3
2017-Sep-01 16:53N 38°31' E 017°16'717.1
2017-Sep-01 16:29N 38°26' E 017°10'10017.7
2017-Sep-01 10:48N 37°09' E 015°48'2117.7
2017-Sep-01 09:36N 36°52' E 015°31'217.6
2017-Sep-01 09:29N 36°51' E 015°30'817.2
2017-Sep-01 09:00N 36°44' E 015°23'916.9
2017-Sep-01 08:30N 36°38' E 015°16'816.1
2017-Sep-01 08:00N 36°34' E 015°08'917.0
2017-Sep-01 07:30N 36°35' E 014°57'817.2
2017-Sep-01 07:01N 36°36' E 014°47'  

Dump ship's entire track history